Time;durP1;ratioP1;P1;durP2;ratioP2;P2;SDS_P1;SDS_P2;PMS_P1;PMS_P2;Temp;Humidity;BMP_temperature;BMP_pressure;BME280_temperature;BME280_humidity;BME280_pressure;Samples;Min_cycle;Max_cycle;Signal;HPM_P1;HPM_P2
2021/05/13 00:02:26;;;;;;;16.42;11.60;;;;;;;13.27;100.00;99947.25;3556970;40;20058;-62
2021/05/13 00:04:53;;;;;;;17.23;11.23;;;;;;;13.02;100.00;99946.25;3556093;40;20057;-62
2021/05/13 00:07:20;;;;;;;17.42;11.82;;;;;;;13.04;100.00;99937.69;3555551;40;20046;-60
2021/05/13 00:09:49;;;;;;;17.38;11.63;;;;;;;12.89;100.00;99930.78;3555287;40;20434;-56
2021/05/13 00:12:36;;;;;;;16.73;12.27;;;;;;;13.29;100.00;99930.94;3556786;40;20057;-59
2021/05/13 00:15:10;;;;;;;16.35;12.35;;;;;;;12.92;100.00;99927.38;3555228;40;20081;-62
2021/05/13 00:17:38;;;;;;;20.75;12.25;;;;;;;12.90;100.00;99926.50;3554987;40;20140;-61
2021/05/13 00:20:08;;;;;;;20.33;14.18;;;;;;;12.73;100.00;99917.00;3555388;40;20046;-58
2021/05/13 00:22:36;;;;;;;22.58;13.38;;;;;;;12.84;100.00;99927.31;3553835;40;20093;-54
2021/05/13 00:25:06;;;;;;;17.25;12.20;;;;;;;12.92;100.00;99917.94;3554663;40;20069;-60
2021/05/13 00:27:33;;;;;;;17.63;12.23;;;;;;;12.97;100.00;99913.69;3555454;40;20038;-58
2021/05/13 00:30:00;;;;;;;17.77;11.43;;;;;;;12.83;100.00;99909.34;3555301;40;20316;-59
2021/05/13 00:32:27;;;;;;;13.85;10.20;;;;;;;12.86;100.00;99904.22;3555727;40;20326;-57
2021/05/13 00:34:54;;;;;;;17.02;9.52;;;;;;;12.68;100.00;99905.00;3555388;40;20087;-56
2021/05/13 00:37:21;;;;;;;19.95;10.32;;;;;;;12.47;100.00;99909.16;3555211;40;20065;-60
2021/05/13 00:39:49;;;;;;;16.38;9.98;;;;;;;12.49;100.00;99916.91;3555103;40;20065;-58
2021/05/13 00:42:16;;;;;;;10.27;7.85;;;;;;;12.84;100.00;99905.91;3555600;40;20097;-57
2021/05/13 00:44:45;;;;;;;15.35;8.98;;;;;;;12.70;100.00;99904.16;3555362;40;20087;-60
2021/05/13 00:47:12;;;;;;;12.63;7.93;;;;;;;13.01;100.00;99896.56;3555471;40;20388;-60
2021/05/13 00:49:42;;;;;;;8.88;7.53;;;;;;;12.49;100.00;99896.34;3552867;40;20057;-58
2021/05/13 00:52:10;;;;;;;16.63;8.32;;;;;;;12.66;100.00;99888.72;3555594;40;20057;-60
2021/05/13 00:54:41;;;;;;;11.25;8.15;;;;;;;12.16;100.00;99881.63;3555279;40;20086;-59
2021/05/13 00:57:11;;;;;;;11.05;7.45;;;;;;;12.38;100.00;99880.88;3555452;40;20058;-60
2021/05/13 00:59:42;;;;;;;11.80;7.22;;;;;;;12.35;100.00;99875.75;3555023;40;20053;-56
2021/05/13 01:02:10;;;;;;;11.60;6.68;;;;;;;12.18;100.00;99872.22;3555665;40;20053;-58
2021/05/13 01:04:37;;;;;;;19.38;7.57;;;;;;;12.19;100.00;99866.22;3553924;40;20038;-59
2021/05/13 01:07:04;;;;;;;13.75;7.32;;;;;;;12.30;100.00;99866.31;3555206;40;20109;-55
2021/05/13 01:09:32;;;;;;;12.82;7.28;;;;;;;12.18;100.00;99859.38;3555185;40;20363;-54
2021/05/13 01:12:07;;;;;;;14.98;7.63;;;;;;;11.98;100.00;99852.44;3555640;40;20045;-58
2021/05/13 01:19:41;;;;;;;16.40;8.65;;;;;;;12.04;100.00;99841.34;3552085;40;20042;-60
2021/05/13 01:22:10;;;;;;;17.52;7.45;;;;;;;12.24;100.00;99856.84;3555430;40;20060;-60
2021/05/13 01:24:37;;;;;;;15.00;7.50;;;;;;;12.24;100.00;99855.13;3555171;40;20050;-58
2021/05/13 01:27:05;;;;;;;13.57;7.90;;;;;;;11.93;100.00;99858.41;3555948;40;20081;-58
2021/05/13 01:29:32;;;;;;;11.57;7.90;;;;;;;12.15;100.00;99849.09;3555875;40;20438;-60
2021/05/13 01:32:00;;;;;;;12.45;7.30;;;;;;;12.24;100.00;99850.00;3553969;40;20113;-56
2021/05/13 01:34:27;;;;;;;13.88;7.10;;;;;;;12.32;100.00;99839.78;3555359;40;20065;-58
2021/05/13 01:36:55;;;;;;;13.68;8.35;;;;;;;12.22;100.00;99843.16;3555109;40;20054;-58
2021/05/13 01:39:22;;;;;;;14.70;7.45;;;;;;;12.18;100.00;99847.41;3550274;40;20038;-56
2021/05/13 01:41:49;;;;;;;11.68;7.47;;;;;;;12.16;100.00;99850.84;3553677;40;20064;-61
2021/05/13 01:44:16;;;;;;;11.77;7.70;;;;;;;12.01;100.00;99851.56;3555598;40;20304;-60
2021/05/13 01:46:43;;;;;;;20.25;8.82;;;;;;;12.15;100.00;99860.22;3554205;40;20082;-60
2021/05/13 01:49:21;;;;;;;15.25;8.40;;;;;;;11.95;100.00;99852.41;3555259;40;20164;-60
2021/05/13 01:51:49;;;;;;;16.10;9.13;;;;;;;12.15;100.00;99838.81;3555005;40;20054;-57
2021/05/13 01:54:19;;;;;;;15.52;9.20;;;;;;;11.76;100.00;99822.31;3555725;40;20062;-55
2021/05/13 01:56:47;;;;;;;17.70;8.57;;;;;;;11.94;100.00;99819.91;3555051;40;20366;-57
2021/05/13 01:59:15;;;;;;;18.70;9.38;;;;;;;12.02;100.00;99802.00;3555496;40;20046;-59
2021/05/13 02:01:42;;;;;;;12.15;8.40;;;;;;;12.25;100.00;99809.81;3555656;40;20046;-57
2021/05/13 02:04:09;;;;;;;18.25;9.45;;;;;;;11.95;100.00;99802.81;3555569;40;20330;-55
2021/05/13 02:06:36;;;;;;;17.50;8.82;;;;;;;12.02;100.00;99793.41;3555191;40;20386;-61
2021/05/13 02:09:04;;;;;;;14.68;9.73;;;;;;;12.14;100.00;99775.53;3594709;23;20062;-62
2021/05/13 02:11:31;;;;;;;14.50;9.23;;;;;;;11.87;100.00;99759.13;3555577;40;20050;-63
2021/05/13 02:13:58;;;;;;;13.80;8.63;;;;;;;11.94;100.00;99753.19;3555419;40;20067;-64
2021/05/13 02:16:25;;;;;;;15.13;9.30;;;;;;;11.79;100.00;99765.91;3555903;40;20072;-64
2021/05/13 02:18:52;;;;;;;16.25;8.32;;;;;;;11.68;100.00;99770.13;3552028;40;20050;-63
2021/05/13 02:21:19;;;;;;;11.13;8.00;;;;;;;11.64;100.00;99774.34;3551594;40;20054;-64
2021/05/13 02:23:46;;;;;;;13.10;8.85;;;;;;;11.60;100.00;99764.06;3550632;40;20062;-60
2021/05/13 02:26:14;;;;;;;14.00;9.10;;;;;;;11.90;100.00;99769.44;3552020;40;20082;-63
2021/05/13 02:28:41;;;;;;;14.77;8.95;;;;;;;11.61;100.00;99770.94;3550060;40;20271;-60
2021/05/13 02:31:08;;;;;;;15.45;9.30;;;;;;;11.59;100.00;99777.75;3551318;40;20401;-64
2021/05/13 02:33:35;;;;;;;13.82;8.27;;;;;;;11.94;100.00;99778.84;3551940;40;20072;-63
2021/05/13 02:36:08;;;;;;;18.80;7.90;;;;;;;11.81;100.00;99786.44;3550154;40;20051;-61
2021/05/13 02:38:35;;;;;;;15.65;8.68;;;;;;;11.87;100.00;99787.34;3551633;40;20121;-61
2021/05/13 02:41:03;;;;;;;16.40;8.98;;;;;;;11.74;100.00;99788.13;3552996;40;20065;-65
2021/05/13 02:43:30;;;;;;;13.77;8.55;;;;;;;11.91;100.00;99780.53;3557836;40;20353;-65
2021/05/13 02:45:57;;;;;;;15.07;8.07;;;;;;;11.94;100.00;99784.00;3555647;40;20182;-64
2021/05/13 02:48:24;;;;;;;15.00;8.07;;;;;;;11.76;100.00;99783.84;3552156;40;20061;-64
2021/05/13 02:50:51;;;;;;;15.52;8.82;;;;;;;11.93;100.00;99787.41;3550949;40;20108;-64
2021/05/13 02:53:18;;;;;;;17.25;9.65;;;;;;;11.78;100.00;99786.41;3551542;40;20434;-62
2021/05/13 02:55:45;;;;;;;14.73;8.88;;;;;;;11.81;100.00;99779.59;3550947;40;20085;-64
2021/05/13 02:58:12;;;;;;;14.32;9.50;;;;;;;11.72;100.00;99780.41;3551133;40;20324;-65
2021/05/13 03:01:04;;;;;;;14.48;9.40;;;;;;;11.76;100.00;99781.28;3546772;40;20085;-62
2021/05/13 03:03:32;;;;;;;18.95;10.20;;;;;;;11.70;100.00;99771.84;3552344;40;20304;-59
2021/05/13 03:05:59;;;;;;;18.30;9.45;;;;;;;11.69;100.00;99772.72;3550073;40;20058;-63
2021/05/13 03:08:27;;;;;;;14.98;9.60;;;;;;;11.81;100.00;99765.91;3551423;40;20391;-64
2021/05/13 03:10:54;;;;;;;13.18;9.23;;;;;;;11.96;100.00;99772.00;3549905;40;20107;-59
2021/05/13 03:13:26;;;;;;;19.55;9.40;;;;;;;11.59;100.00;99768.34;3551739;40;20057;-62
2021/05/13 03:15:53;;;;;;;17.35;11.02;;;;;;;11.58;100.00;99763.22;3550120;40;20054;-64
2021/05/13 03:18:23;;;;;;;15.10;9.85;;;;;;;11.51;100.00;99774.25;3551338;40;20062;-63
2021/05/13 03:21:03;;;;;;;21.00;10.93;;;;;;;11.72;100.00;99776.97;3550360;40;20053;-62
2021/05/13 03:26:17;;;;;;;18.58;9.93;;;;;;;11.80;100.00;99765.06;3550929;40;20046;-65
2021/05/13 03:28:44;;;;;;;27.83;12.65;;;;;;;11.74;100.00;99772.75;3551379;40;20322;-64
2021/05/13 03:31:12;;;;;;;15.77;9.98;;;;;;;11.76;100.00;99765.03;3551103;40;20054;-66
2021/05/13 03:33:40;;;;;;;16.05;9.57;;;;;;;11.79;100.00;99770.19;3551009;40;20086;-61
2021/05/13 03:36:07;;;;;;;19.05;9.38;;;;;;;11.86;100.00;99767.69;3550712;40;20089;-63
2021/05/13 03:38:39;;;;;;;15.20;8.93;;;;;;;11.91;100.00;99762.59;3551074;40;20084;-61
2021/05/13 03:41:06;;;;;;;15.85;9.70;;;;;;;11.75;100.00;99763.34;3549435;40;20148;-61
2021/05/13 03:43:33;;;;;;;16.92;9.45;;;;;;;11.80;100.00;99764.22;3551158;40;20065;-61
2021/05/13 03:46:00;;;;;;;15.52;9.45;;;;;;;11.64;100.00;99764.09;3550122;40;20050;-63
2021/05/13 03:48:27;;;;;;;16.65;9.85;;;;;;;11.56;100.00;99770.06;3551545;40;20144;-63
2021/05/13 03:50:54;;;;;;;16.63;9.25;;;;;;;11.71;100.00;99759.88;3549919;40;20051;-62
2021/05/13 03:53:21;;;;;;;15.40;9.77;;;;;;;11.89;100.00;99756.59;3551283;40;20054;-60
2021/05/13 03:55:51;;;;;;;16.17;9.70;;;;;;;11.64;100.00;99760.69;3550108;40;20060;-60
2021/05/13 03:58:22;;;;;;;16.38;9.35;;;;;;;11.92;100.00;99765.19;3551526;40;20064;-58
2021/05/13 04:01:07;;;;;;;15.70;9.48;;;;;;;11.79;100.00;99758.22;3550125;40;20076;-62
2021/05/13 04:03:34;;;;;;;15.40;9.15;;;;;;;11.64;100.00;99758.97;3548697;40;20299;-62
2021/05/13 04:06:01;;;;;;;16.20;9.73;;;;;;;11.75;100.00;99753.94;3550175;40;20053;-61
2021/05/13 04:08:28;;;;;;;19.17;10.77;;;;;;;11.53;100.00;99754.63;3552585;40;20085;-63
2021/05/13 04:10:55;;;;;;;14.35;9.48;;;;;;;11.73;100.00;99746.19;3551654;40;20062;-61
2021/05/13 04:13:23;;;;;;;19.05;10.77;;;;;;;11.64;100.00;99755.56;3547902;40;20447;-63
2021/05/13 04:15:52;;;;;;;15.70;10.27;;;;;;;11.72;100.00;99751.34;3551364;40;20094;-61
2021/05/13 04:18:20;;;;;;;14.15;9.82;;;;;;;11.72;100.00;99752.19;3552627;40;20065;-62
2021/05/13 04:20:48;;;;;;;16.98;10.18;;;;;;;11.53;100.00;99752.94;3551667;40;20065;-62
2021/05/13 04:23:15;;;;;;;17.55;9.63;;;;;;;11.57;100.00;99746.97;3552838;40;20054;-61
2021/05/13 04:25:42;;;;;;;16.92;9.88;;;;;;;11.71;100.00;99735.09;3547999;40;20090;-64
2021/05/13 04:28:09;;;;;;;11.13;8.00;;;;;;;12.04;100.00;99736.13;3551852;40;20394;-63
2021/05/13 04:30:36;;;;;;;14.75;9.23;;;;;;;11.82;100.00;99736.84;3549160;40;20110;-61
2021/05/13 04:33:03;;;;;;;15.93;9.35;;;;;;;11.85;100.00;99732.63;3551457;40;20324;-65
2021/05/13 04:35:30;;;;;;;14.32;8.02;;;;;;;12.10;100.00;99733.59;3553064;40;20057;-62
2021/05/13 04:37:58;;;;;;;15.32;8.48;;;;;;;12.06;100.00;99734.44;3551190;40;20023;-61
2021/05/13 04:40:25;;;;;;;13.82;7.93;;;;;;;12.08;100.00;99735.31;3552493;40;20061;-63
2021/05/13 04:42:53;;;;;;;14.43;8.60;;;;;;;11.84;100.00;99730.06;3546509;40;20095;-62
2021/05/13 04:45:20;;;;;;;10.35;7.82;;;;;;;11.88;100.00;99736.94;3554187;40;20329;-60
2021/05/13 04:50:27;;;;;;;8.68;7.35;;;;;;;11.98;100.00;99736.13;3543502;40;20069;-65
2021/05/13 04:52:55;;;;;;;10.35;7.53;;;;;;;11.86;100.00;99726.66;3551436;40;20057;-63
2021/05/13 04:55:22;;;;;;;11.85;7.80;;;;;;;12.10;100.00;99735.31;3552673;40;20337;-61
2021/05/13 04:57:49;;;;;;;10.10;7.45;;;;;;;12.08;100.00;99735.31;3550985;40;20065;-61
2021/05/13 05:00:17;;;;;;;11.65;7.40;;;;;;;12.04;100.00;99727.59;3547925;40;20046;-63
2021/05/13 05:02:44;;;;;;;12.80;8.23;;;;;;;11.80;100.00;99729.16;3551725;40;20106;-63
2021/05/13 05:05:11;;;;;;;10.50;7.30;;;;;;;11.84;100.00;99724.94;3551818;40;20110;-62
2021/05/13 05:07:38;;;;;;;13.20;7.10;;;;;;;11.90;100.00;99722.41;3551485;40;20050;-60
2021/05/13 05:10:05;;;;;;;11.27;8.05;;;;;;;11.89;100.00;99718.97;3551284;40;20080;-59
2021/05/13 05:12:33;;;;;;;14.60;7.75;;;;;;;12.07;100.00;99712.22;3552413;40;20066;-62
2021/05/13 05:15:00;;;;;;;13.73;7.75;;;;;;;11.98;100.00;99711.31;3551369;40;20069;-62
2021/05/13 05:17:27;;;;;;;15.05;7.88;;;;;;;11.94;100.00;99712.16;3552395;40;20046;-62
2021/05/13 05:19:54;;;;;;;9.70;7.55;;;;;;;12.03;100.00;99706.22;3550824;40;20054;-62
2021/05/13 05:22:21;;;;;;;13.00;7.22;;;;;;;12.43;100.00;99701.19;3552186;40;20066;-61
2021/05/13 05:24:48;;;;;;;9.68;7.32;;;;;;;12.46;100.00;99702.03;3548741;40;20074;-60
2021/05/13 05:27:15;;;;;;;8.98;7.43;;;;;;;12.20;100.00;99693.41;3547771;40;20115;-60
2021/05/13 05:29:43;;;;;;;7.18;6.40;;;;;;;12.09;100.00;99700.22;3551610;40;20046;-59
2021/05/13 05:32:10;;;;;;;10.57;7.82;;;;;;;12.15;100.00;99700.25;3551609;40;20387;-63
2021/05/13 05:34:38;;;;;;;11.38;7.60;;;;;;;12.06;100.00;99697.66;3552068;40;20060;-61
2021/05/13 05:37:05;;;;;;;9.75;6.95;;;;;;;12.17;100.00;99696.00;3550643;40;20054;-61
2021/05/13 05:39:32;;;;;;;11.18;7.45;;;;;;;12.09;100.00;99692.53;3551846;40;20050;-63
2021/05/13 05:41:59;;;;;;;12.90;7.60;;;;;;;12.02;100.00;99691.66;3551330;40;20054;-60
2021/05/13 05:44:26;;;;;;;11.57;6.70;;;;;;;12.22;100.00;99682.31;3552628;40;20105;-61
2021/05/13 05:46:53;;;;;;;9.93;7.05;;;;;;;12.09;100.00;99666.88;3550912;40;20124;-62
2021/05/13 05:49:21;;;;;;;9.90;6.68;;;;;;;12.07;100.00;99672.00;3551815;40;20077;-63
2021/05/13 05:51:48;;;;;;;8.90;6.63;;;;;;;12.37;100.00;99685.78;3550934;40;20057;-60
2021/05/13 05:54:16;;;;;;;10.48;6.65;;;;;;;12.57;100.00;99696.06;3551877;40;20128;-61
2021/05/13 05:56:43;;;;;;;10.70;7.10;;;;;;;12.44;100.00;99688.38;3551802;40;20343;-62
2021/05/13 05:59:14;;;;;;;8.93;6.53;;;;;;;12.60;100.00;99688.38;3551382;40;20423;-61
2021/05/13 06:01:41;;;;;;;8.82;6.85;;;;;;;12.54;100.00;99693.50;3551734;40;20303;-59
2021/05/13 06:04:09;;;;;;;9.73;6.45;;;;;;;12.63;100.00;99683.25;3551401;40;20069;-62
2021/05/13 06:06:37;;;;;;;8.95;6.57;;;;;;;12.62;100.00;99695.25;3551721;40;20115;-60
2021/05/13 06:09:05;;;;;;;13.35;6.88;;;;;;;12.19;100.00;99695.13;3547427;40;20050;-60
2021/05/13 06:11:32;;;;;;;10.23;6.93;;;;;;;12.55;100.00;99696.06;3551714;40;20058;-61
2021/05/13 06:13:59;;;;;;;10.75;7.07;;;;;;;12.40;100.00;99690.91;3550721;40;20065;-61
2021/05/13 06:16:27;;;;;;;9.30;7.15;;;;;;;12.52;100.00;99690.06;3552088;40;20056;-59
2021/05/13 06:18:58;;;;;;;9.57;6.72;;;;;;;12.26;100.00;99682.34;3550524;40;20125;-59
2021/05/13 06:21:26;;;;;;;12.95;7.22;;;;;;;12.42;100.00;99684.91;3547820;40;20054;-61
2021/05/13 06:23:57;;;;;;;8.77;6.78;;;;;;;12.31;100.00;99685.75;3550400;40;20053;-59
2021/05/13 06:26:30;;;;;;;10.10;6.50;;;;;;;12.51;100.00;99693.50;3547090;40;20046;-63
2021/05/13 06:29:03;;;;;;;9.75;6.70;;;;;;;12.36;100.00;99682.34;3548812;40;20365;-62
2021/05/13 06:31:31;;;;;;;9.02;7.25;;;;;;;12.35;100.00;99679.78;3552689;40;20132;-62
2021/05/13 06:33:58;;;;;;;10.18;6.57;;;;;;;12.60;100.00;99678.09;3548213;40;20343;-63
2021/05/13 06:36:27;;;;;;;9.50;6.85;;;;;;;12.54;100.00;99678.97;3551955;40;20060;-61
2021/05/13 06:38:54;;;;;;;7.65;6.68;;;;;;;12.44;100.00;99683.22;3550319;40;20082;-63
2021/05/13 06:41:21;;;;;;;9.50;5.97;;;;;;;12.20;100.00;99683.16;3551865;40;20117;-63
2021/05/13 06:43:48;;;;;;;8.95;6.93;;;;;;;12.10;100.00;99682.25;3550910;40;20053;-64
2021/05/13 06:46:16;;;;;;;8.95;5.85;;;;;;;12.33;100.00;99682.34;3551622;40;20050;-59
2021/05/13 06:48:46;;;;;;;13.10;6.65;;;;;;;12.60;100.00;99681.53;3550296;40;20046;-60
2021/05/13 06:51:14;;;;;;;14.20;8.00;;;;;;;12.46;100.00;99684.06;3552124;40;20321;-62
2021/05/13 06:53:40;;;;;;;11.55;6.85;;;;;;;12.65;100.00;99677.25;3555228;40;20073;-62
2021/05/13 06:56:07;;;;;;;10.70;7.50;;;;;;;12.56;100.00;99684.09;3553922;40;20313;-62
2021/05/13 06:58:34;;;;;;;42.05;27.17;;;;;;;12.51;100.00;99683.22;3552469;40;20089;-62
2021/05/13 07:01:02;;;;;;;20.25;14.30;;;;;;;12.45;100.00;99678.94;3546686;40;20066;-60
2021/05/13 07:03:29;;;;;;;12.57;9.02;;;;;;;12.72;100.00;99676.41;3552540;40;20058;-60
2021/05/13 07:05:57;;;;;;;20.42;14.38;;;;;;;12.98;100.00;99680.69;3550184;40;20050;-58
2021/05/13 07:08:24;;;;;;;15.88;11.05;;;;;;;12.98;100.00;99683.25;3547239;40;20459;-61
2021/05/13 07:10:51;;;;;;;11.23;9.07;;;;;;;12.96;100.00;99685.84;3550520;40;20038;-56
2021/05/13 07:13:18;;;;;;;9.77;6.75;;;;;;;13.36;100.00;99682.41;3551858;40;20057;-60
2021/05/13 07:15:48;;;;;;;10.95;8.90;;;;;;;13.03;100.00;99684.09;3551643;40;20054;-60
2021/05/13 07:18:25;;;;;;;10.63;7.40;;;;;;;12.82;100.00;99686.69;3555971;40;20408;-61
2021/05/13 07:20:55;;;;;;;9.57;6.57;;;;;;;13.20;100.00;99684.09;3554327;40;20137;-61
2021/05/13 07:23:31;;;;;;;10.27;7.15;;;;;;;13.02;100.00;99679.81;3548060;40;20050;-62
2021/05/13 07:26:00;;;;;;;7.80;6.70;;;;;;;12.74;100.00;99676.41;3550662;40;20053;-59
2021/05/13 07:28:29;;;;;;;9.38;7.40;;;;;;;12.44;100.00;99670.38;3549151;40;20038;-61
2021/05/13 07:31:04;;;;;;;9.00;7.30;;;;;;;12.60;100.00;99671.25;3547534;40;20042;-60
2021/05/13 07:33:36;;;;;;;9.15;7.25;;;;;;;12.61;100.00;99672.97;3548409;40;20050;-59
2021/05/13 07:36:05;;;;;;;7.57;6.40;;;;;;;12.71;100.00;99682.41;3549188;40;20082;-63
2021/05/13 07:38:45;;;;;;;8.52;7.22;;;;;;;12.41;100.00;99680.66;3549690;40;20066;-56
2021/05/13 07:41:24;;;;;;;10.05;7.43;;;;;;;13.03;100.00;99680.69;3551192;40;20058;-56
2021/05/13 07:43:53;;;;;;;9.43;7.07;;;;;;;12.81;100.00;99683.28;3550967;40;20592;-58
2021/05/13 07:46:20;;;;;;;11.02;7.07;;;;;;;13.08;100.00;99681.53;3551994;40;20050;-59
2021/05/13 07:48:51;;;;;;;10.52;7.60;;;;;;;12.93;100.00;99685.81;3550878;40;20061;-58
2021/05/13 07:51:19;;;;;;;11.90;7.82;;;;;;;12.78;100.00;99685.81;3552133;40;20077;-62
2021/05/13 07:53:46;;;;;;;9.77;7.05;;;;;;;12.59;100.00;99689.25;3551448;40;20096;-57
2021/05/13 07:56:13;;;;;;;11.13;7.93;;;;;;;12.53;100.00;99687.53;3550651;40;20058;-59
2021/05/13 07:58:40;;;;;;;10.60;7.72;;;;;;;12.61;100.00;99683.22;3551623;40;20423;-55
2021/05/13 08:01:07;;;;;;;11.13;7.47;;;;;;;12.53;100.00;99677.25;3552421;40;20074;-61
2021/05/13 08:03:36;;;;;;;9.90;7.55;;;;;;;12.87;100.00;99678.13;3552822;40;20085;-61
2021/05/13 08:06:04;;;;;;;9.88;8.02;;;;;;;12.89;100.00;99676.41;3550308;40;20050;-63
2021/05/13 08:08:31;;;;;;;10.13;8.05;;;;;;;13.04;100.00;99678.13;3548522;40;20057;-63
2021/05/13 08:10:58;;;;;;;10.25;8.05;;;;;;;12.74;100.00;99677.25;3547786;40;20415;-63
2021/05/13 08:13:25;;;;;;;9.05;7.18;;;;;;;13.02;100.00;99673.84;3553185;40;20331;-63
2021/05/13 08:15:52;;;;;;;8.98;6.88;;;;;;;12.94;100.00;99663.53;3551412;40;25311;-63
2021/05/13 08:18:19;;;;;;;9.55;6.88;;;;;;;12.81;100.00;99669.56;3552723;40;20082;-63
2021/05/13 08:20:46;;;;;;;10.48;7.60;;;;;;;12.39;100.00;99679.81;3551765;40;20058;-62
2021/05/13 08:23:14;;;;;;;13.70;8.13;;;;;;;12.77;100.00;99673.84;3546004;40;20050;-64
2021/05/13 08:25:41;;;;;;;10.25;8.23;;;;;;;12.60;100.00;99668.69;3550626;40;20065;-64
2021/05/13 08:28:09;;;;;;;22.42;16.48;;;;;;;12.81;100.00;99678.13;3550252;40;20046;-64
2021/05/13 08:30:36;;;;;;;8.98;7.35;;;;;;;12.85;100.00;99671.25;3548392;40;20062;-63
2021/05/13 08:33:03;;;;;;;178.55;96.13;;;;;;;12.54;100.00;99678.09;3548082;40;20058;-63
2021/05/13 08:35:30;;;;;;;17.10;11.27;;;;;;;12.70;100.00;99669.53;3551250;40;20073;-62
2021/05/13 08:37:57;;;;;;;27.58;15.93;;;;;;;12.77;100.00;99673.00;3549221;40;20075;-63
2021/05/13 08:40:24;;;;;;;23.40;12.68;;;;;;;12.67;100.00;99672.13;3549948;40;20042;-63
2021/05/13 08:42:51;;;;;;;11.73;8.48;;;;;;;12.61;100.00;99670.38;3549879;40;20090;-62
2021/05/13 08:45:19;;;;;;;18.20;11.55;;;;;;;12.46;100.00;99665.25;3552022;40;20094;-63
2021/05/13 08:47:47;;;;;;;77.38;34.38;;;;;;;12.49;100.00;99660.97;3551024;40;20090;-62
2021/05/13 08:50:18;;;;;;;17.27;9.98;;;;;;;12.54;100.00;99667.84;3549398;40;20046;-63
2021/05/13 08:52:46;;;;;;;10.07;8.25;;;;;;;12.57;100.00;99660.13;3548198;40;20046;-63
2021/05/13 08:55:15;;;;;;;12.20;8.98;;;;;;;12.54;100.00;99655.84;3551232;40;20148;-62
2021/05/13 08:57:43;;;;;;;18.52;11.40;;;;;;;12.39;100.00;99663.53;3550628;40;20342;-63
2021/05/13 09:00:10;;;;;;;14.68;10.35;;;;;;;12.60;100.00;99660.97;3551812;40;20061;-63
2021/05/13 09:02:37;;;;;;;12.38;10.00;;;;;;;12.59;100.00;99656.72;3547147;40;20069;-62
2021/05/13 09:05:07;;;;;;;19.02;12.25;;;;;;;12.32;100.00;99654.09;3544838;40;20078;-63
2021/05/13 09:07:34;;;;;;;11.98;9.40;;;;;;;12.73;100.00;99649.88;3544601;40;20343;-63
2021/05/13 09:10:06;;;;;;;14.68;9.40;;;;;;;12.87;100.00;99636.16;3546268;40;20058;-62
2021/05/13 09:12:39;;;;;;;13.10;9.80;;;;;;;12.78;100.00;99629.31;3550536;40;20122;-63
2021/05/13 09:15:10;;;;;;;10.38;8.73;;;;;;;13.06;100.00;99627.56;3550102;40;20087;-62
2021/05/13 09:17:39;;;;;;;13.15;9.05;;;;;;;13.05;100.00;99636.13;3550856;40;20054;-65
2021/05/13 09:20:22;;;;;;;11.45;8.30;;;;;;;13.00;100.00;99638.72;3546799;40;20054;-62
2021/05/13 09:22:50;;;;;;;15.02;9.60;;;;;;;13.04;100.00;99625.88;3551429;40;20069;-62
2021/05/13 09:25:17;;;;;;;21.98;11.45;;;;;;;13.04;100.00;99624.16;3552094;40;20057;-64
2021/05/13 09:27:49;;;;;;;9.15;6.28;;;;;;;13.18;100.00;99619.00;3550360;40;20102;-63
2021/05/13 09:30:24;;;;;;;8.98;5.80;;;;;;;13.19;100.00;99628.41;3550764;40;20037;-62
2021/05/13 09:32:56;;;;;;;8.00;5.60;;;;;;;13.03;100.00;99627.56;3550197;40;20080;-63
2021/05/13 09:35:27;;;;;;;9.15;6.05;;;;;;;13.30;100.00;99631.84;3546326;40;21846;-64
2021/05/13 09:37:57;;;;;;;8.52;5.60;;;;;;;13.27;100.00;99634.44;3550100;40;20058;-63
2021/05/13 09:40:52;;;;;;;6.07;5.38;;;;;;;13.01;100.00;99634.44;3547861;40;20053;-61
2021/05/13 09:43:21;;;;;;;42.80;29.85;;;;;;;13.29;100.00;99642.97;3551551;40;20133;-64
2021/05/13 09:46:03;;;;;;;21.13;15.77;;;;;;;13.10;100.00;99643.84;3550677;40;20077;-62
2021/05/13 09:48:39;;;;;;;10.13;8.52;;;;;;;13.17;100.00;99648.09;3548461;40;20054;-62
2021/05/13 09:51:21;;;;;;;7.25;6.57;;;;;;;13.16;100.00;99651.53;3550003;40;20042;-62
2021/05/13 09:54:07;;;;;;;6.93;6.10;;;;;;;12.88;100.00;99643.84;3551342;40;20115;-63
2021/05/13 09:56:40;;;;;;;8.32;5.43;;;;;;;12.69;100.00;99645.56;3548989;40;20058;-63
2021/05/13 09:59:20;;;;;;;6.93;5.80;;;;;;;12.62;100.00;99645.59;3549967;40;20168;-60
2021/05/13 10:01:49;;;;;;;5.80;4.60;;;;;;;12.80;100.00;99648.13;3550251;40;20061;-63
2021/05/13 10:04:17;;;;;;;5.72;5.22;;;;;;;13.09;100.00;99658.41;3551990;40;20093;-63
2021/05/13 10:06:45;;;;;;;5.53;4.93;;;;;;;13.03;100.00;99660.13;3551343;40;20406;-64
2021/05/13 10:09:16;;;;;;;5.70;5.13;;;;;;;13.18;100.00;99665.25;3551279;40;20054;-63
2021/05/13 10:11:48;;;;;;;12.20;7.68;;;;;;;13.08;100.00;99661.84;3550717;40;20089;-63
2021/05/13 10:14:16;;;;;;;9.02;8.13;;;;;;;13.14;100.00;99666.13;3551668;40;20065;-64
2021/05/13 10:16:44;;;;;;;10.85;9.45;;;;;;;13.08;100.00;99667.00;3551500;40;20069;-64
2021/05/13 10:19:14;;;;;;;8.43;7.63;;;;;;;13.16;100.00;99665.25;3551172;40;20061;-64
2021/05/13 10:21:43;;;;;;;9.73;8.65;;;;;;;12.81;100.00;99662.72;3551504;40;20065;-64
2021/05/13 10:24:12;;;;;;;9.20;8.15;;;;;;;12.78;100.00;99657.56;3551757;40;20054;-64
2021/05/13 10:26:40;;;;;;;9.20;8.30;;;;;;;12.82;100.00;99663.56;3551615;40;20054;-62
2021/05/13 10:29:19;;;;;;;8.77;7.97;;;;;;;12.65;100.00;99661.84;3550109;40;20054;-63
2021/05/13 10:32:08;;;;;;;7.72;6.93;;;;;;;12.92;100.00;99668.69;3549657;40;20148;-63
2021/05/13 10:34:41;;;;;;;7.85;6.68;;;;;;;12.77;100.00;99678.97;3551878;40;20404;-64
2021/05/13 10:37:19;;;;;;;8.05;7.25;;;;;;;12.63;100.00;99670.41;3550336;40;20401;-64
2021/05/13 10:40:12;;;;;;;8.50;6.40;;;;;;;12.79;100.00;99666.97;3550956;40;20483;-64
2021/05/13 10:42:41;;;;;;;9.00;6.80;;;;;;;12.45;100.00;99666.09;3548375;40;20042;-65
2021/05/13 10:45:26;;;;;;;7.38;6.45;;;;;;;12.68;100.00;99661.84;3550857;40;20055;-64
2021/05/13 10:48:15;;;;;;;7.65;6.68;;;;;;;12.44;100.00;99649.00;3545601;40;20058;-65
2021/05/13 10:51:01;;;;;;;5.78;4.90;;;;;;;12.46;100.00;99642.13;3544266;40;20061;-65
2021/05/13 10:53:34;;;;;;;4.75;3.97;;;;;;;12.48;100.00;99641.31;3545303;40;20057;-64
2021/05/13 10:56:22;;;;;;;4.47;4.07;;;;;;;12.69;100.00;99644.72;3545171;40;20328;-64
2021/05/13 10:58:58;;;;;;;4.32;3.92;;;;;;;12.14;100.00;99636.94;3544586;40;20352;-65
2021/05/13 11:01:28;;;;;;;4.10;3.72;;;;;;;12.57;100.00;99648.16;3544361;40;20062;-64
2021/05/13 11:04:20;;;;;;;4.07;3.67;;;;;;;12.47;100.00;99638.72;3545781;40;20050;-64
2021/05/13 11:06:55;;;;;;;3.83;3.53;;;;;;;12.44;100.00;99631.88;3544868;40;20038;-65
2021/05/13 11:10:13;;;;;;;3.88;3.10;;;;;;;12.54;100.00;99634.44;3544587;40;20139;-65
2021/05/13 11:12:41;;;;;;;3.72;3.42;;;;;;;12.54;100.00;99631.88;3543369;40;20320;-64
2021/05/13 11:15:29;;;;;;;3.97;3.10;;;;;;;12.72;100.00;99632.75;3547123;40;20058;-67
2021/05/13 11:18:05;;;;;;;3.17;2.80;;;;;;;12.49;100.00;99639.59;3547871;40;20086;-62
2021/05/13 11:20:42;;;;;;;2.97;2.67;;;;;;;12.54;100.00;99632.75;3547683;40;20353;-64
2021/05/13 11:23:19;;;;;;;4.40;2.60;;;;;;;12.44;100.00;99624.19;3546656;40;20072;-61
2021/05/13 11:25:53;;;;;;;3.08;2.78;;;;;;;12.28;100.00;99622.44;3545834;40;20054;-64
2021/05/13 11:28:42;;;;;;;2.58;2.38;;;;;;;12.37;100.00;99624.16;3546002;40;20070;-60
2021/05/13 11:31:18;;;;;;;2.67;2.47;;;;;;;12.53;100.00;99628.47;3545731;40;20057;-58
2021/05/13 11:33:51;;;;;;;3.42;2.70;;;;;;;12.40;100.00;99622.47;3543893;40;20353;-56
2021/05/13 11:36:29;;;;;;;3.63;3.33;;;;;;;12.48;100.00;99623.31;3549713;40;20081;-60
2021/05/13 11:38:58;;;;;;;2.90;2.60;;;;;;;12.59;100.00;99625.03;3540950;40;20076;-58
2021/05/13 11:41:27;;;;;;;1.85;1.63;;;;;;;12.48;100.00;99613.06;3545945;40;20166;-57
2021/05/13 11:43:54;;;;;;;2.00;1.80;;;;;;;12.81;100.00;99618.19;3547596;40;20126;-61